Archival Weather

Granbury Rgnl

Granbury, Texas (KGDJ)

Report from: Monday, January 29, 2024 5:35 PM UTC
Current time: Tuesday, June 18, 2024 12:47 PM UTC

Current weather – Weather history – Daily summaries
Weather forecast

Temperature15.3°C (59.5°F)
Dew point6.1°C (43.0°F)
Winds 3 kts (1.5 m/s, 3.5 mph) Northeast (50°)
Visibility10 mi. (16.1 km)
Clouds Sky clear
Altimeter30.32 in.Hg (1027 mB)
Relative humidity54 %
Density altitude-281 ft. (-86 m)
Remarks Fully automated report
Automated weather observing station with precipitation discriminator
Flight conditions Visual Meteorological Conditions
Raw dataKGDJ 291735Z AUTO 05003KT 10SM CLR 15/06 A3032 RMK AO2 T01530061
An error has occurred. This application may no longer respond until reloaded. Reload 🗙